sensor_id;sensor_type;location;lat;lon;timestamp;P1;durP1;ratioP1;P2;durP2;ratioP2
75191;SDS011;63771;52.580;9.734;2023-08-24T00:00:54;3.00;;;2.80;;
75191;SDS011;63771;52.580;9.734;2023-08-24T00:03:20;3.50;;;3.20;;
75191;SDS011;63771;52.580;9.734;2023-08-24T00:05:47;4.82;;;3.13;;
75191;SDS011;63771;52.580;9.734;2023-08-24T00:08:12;3.00;;;2.63;;
75191;SDS011;63771;52.580;9.734;2023-08-24T00:10:37;3.57;;;3.13;;
75191;SDS011;63771;52.580;9.734;2023-08-24T00:13:03;4.77;;;3.27;;
75191;SDS011;63771;52.580;9.734;2023-08-24T00:15:29;3.17;;;2.92;;
75191;SDS011;63771;52.580;9.734;2023-08-24T00:17:54;3.10;;;2.90;;
75191;SDS011;63771;52.580;9.734;2023-08-24T00:20:20;3.83;;;2.88;;
75191;SDS011;63771;52.580;9.734;2023-08-24T00:22:45;3.13;;;2.83;;
75191;SDS011;63771;52.580;9.734;2023-08-24T00:25:11;4.88;;;3.35;;
75191;SDS011;63771;52.580;9.734;2023-08-24T00:27:36;3.63;;;3.42;;
75191;SDS011;63771;52.580;9.734;2023-08-24T00:30:02;5.87;;;3.00;;
75191;SDS011;63771;52.580;9.734;2023-08-24T00:32:29;3.08;;;2.88;;
75191;SDS011;63771;52.580;9.734;2023-08-24T00:34:55;4.70;;;4.25;;
75191;SDS011;63771;52.580;9.734;2023-08-24T00:37:21;3.50;;;3.15;;
75191;SDS011;63771;52.580;9.734;2023-08-24T00:39:46;7.10;;;3.30;;
75191;SDS011;63771;52.580;9.734;2023-08-24T00:42:11;3.00;;;2.78;;
75191;SDS011;63771;52.580;9.734;2023-08-24T00:44:40;3.70;;;3.40;;
75191;SDS011;63771;52.580;9.734;2023-08-24T00:47:06;3.97;;;3.15;;
75191;SDS011;63771;52.580;9.734;2023-08-24T00:49:32;3.55;;;3.00;;
75191;SDS011;63771;52.580;9.734;2023-08-24T00:51:57;3.70;;;3.23;;
75191;SDS011;63771;52.580;9.734;2023-08-24T00:54:23;3.45;;;3.10;;
75191;SDS011;63771;52.580;9.734;2023-08-24T00:56:48;3.13;;;2.80;;
75191;SDS011;63771;52.580;9.734;2023-08-24T01:32:50;3.35;;;3.05;;
75191;SDS011;63771;52.580;9.734;2023-08-24T01:35:16;3.23;;;3.03;;
75191;SDS011;63771;52.580;9.734;2023-08-24T01:37:41;3.43;;;2.90;;
75191;SDS011;63771;52.580;9.734;2023-08-24T01:40:50;3.80;;;3.17;;
75191;SDS011;63771;52.580;9.734;2023-08-24T01:43:07;3.38;;;3.10;;
75191;SDS011;63771;52.580;9.734;2023-08-24T01:45:35;3.72;;;3.42;;
75191;SDS011;63771;52.580;9.734;2023-08-24T01:48:01;3.27;;;2.97;;
75191;SDS011;63771;52.580;9.734;2023-08-24T01:50:28;4.53;;;3.28;;
75191;SDS011;63771;52.580;9.734;2023-08-24T01:52:55;3.50;;;3.15;;
75191;SDS011;63771;52.580;9.734;2023-08-24T01:55:20;4.13;;;3.72;;
75191;SDS011;63771;52.580;9.734;2023-08-24T01:57:46;3.47;;;3.20;;
75191;SDS011;63771;52.580;9.734;2023-08-24T02:00:13;3.42;;;3.10;;
75191;SDS011;63771;52.580;9.734;2023-08-24T02:02:38;3.17;;;2.95;;
75191;SDS011;63771;52.580;9.734;2023-08-24T02:05:04;3.97;;;3.63;;
75191;SDS011;63771;52.580;9.734;2023-08-24T02:07:29;3.47;;;3.17;;
75191;SDS011;63771;52.580;9.734;2023-08-24T02:09:55;3.55;;;3.35;;
75191;SDS011;63771;52.580;9.734;2023-08-24T02:12:20;3.25;;;3.05;;
75191;SDS011;63771;52.580;9.734;2023-08-24T02:14:45;3.38;;;3.00;;
75191;SDS011;63771;52.580;9.734;2023-08-24T02:17:11;4.00;;;3.30;;
75191;SDS011;63771;52.580;9.734;2023-08-24T02:19:36;3.60;;;3.30;;
75191;SDS011;63771;52.580;9.734;2023-08-24T02:22:02;3.33;;;3.10;;
75191;SDS011;63771;52.580;9.734;2023-08-24T02:24:27;4.45;;;3.85;;
75191;SDS011;63771;52.580;9.734;2023-08-24T02:26:52;3.93;;;3.53;;
75191;SDS011;63771;52.580;9.734;2023-08-24T02:29:18;3.60;;;3.30;;
75191;SDS011;63771;52.580;9.734;2023-08-24T02:31:43;4.25;;;3.80;;
75191;SDS011;63771;52.580;9.734;2023-08-24T02:34:08;4.18;;;3.60;;
75191;SDS011;63771;52.580;9.734;2023-08-24T02:36:34;6.97;;;3.90;;
75191;SDS011;63771;52.580;9.734;2023-08-24T02:38:59;4.50;;;4.10;;
75191;SDS011;63771;52.580;9.734;2023-08-24T02:41:25;4.00;;;3.70;;
75191;SDS011;63771;52.580;9.734;2023-08-24T02:43:51;6.30;;;4.03;;
75191;SDS011;63771;52.580;9.734;2023-08-24T02:46:16;4.03;;;3.60;;
75191;SDS011;63771;52.580;9.734;2023-08-24T02:48:43;3.75;;;3.53;;
75191;SDS011;63771;52.580;9.734;2023-08-24T02:51:09;4.30;;;4.00;;
75191;SDS011;63771;52.580;9.734;2023-08-24T02:53:35;4.85;;;4.38;;
75191;SDS011;63771;52.580;9.734;2023-08-24T02:56:00;3.42;;;3.22;;
75191;SDS011;63771;52.580;9.734;2023-08-24T02:58:26;3.63;;;3.22;;
75191;SDS011;63771;52.580;9.734;2023-08-24T03:00:52;4.28;;;3.10;;
75191;SDS011;63771;52.580;9.734;2023-08-24T03:03:17;5.80;;;3.63;;
75191;SDS011;63771;52.580;9.734;2023-08-24T03:05:54;6.13;;;3.60;;
75191;SDS011;63771;52.580;9.734;2023-08-24T03:08:21;4.47;;;4.07;;
75191;SDS011;63771;52.580;9.734;2023-08-24T03:10:46;3.75;;;3.40;;
75191;SDS011;63771;52.580;9.734;2023-08-24T03:13:11;3.67;;;3.37;;
75191;SDS011;63771;52.580;9.734;2023-08-24T03:15:37;4.57;;;3.90;;
75191;SDS011;63771;52.580;9.734;2023-08-24T03:18:02;4.03;;;3.70;;
75191;SDS011;63771;52.580;9.734;2023-08-24T03:20:28;3.85;;;3.50;;
75191;SDS011;63771;52.580;9.734;2023-08-24T03:22:53;3.30;;;3.10;;
75191;SDS011;63771;52.580;9.734;2023-08-24T03:25:18;4.20;;;3.97;;
75191;SDS011;63771;52.580;9.734;2023-08-24T03:27:44;3.80;;;3.50;;
75191;SDS011;63771;52.580;9.734;2023-08-24T03:30:09;3.80;;;3.50;;
75191;SDS011;63771;52.580;9.734;2023-08-24T03:32:35;4.07;;;3.60;;
75191;SDS011;63771;52.580;9.734;2023-08-24T03:35:01;4.07;;;3.57;;
75191;SDS011;63771;52.580;9.734;2023-08-24T03:37:27;3.72;;;3.42;;
75191;SDS011;63771;52.580;9.734;2023-08-24T03:39:52;3.90;;;3.70;;
75191;SDS011;63771;52.580;9.734;2023-08-24T03:42:18;4.23;;;3.90;;
75191;SDS011;63771;52.580;9.734;2023-08-24T03:44:43;4.15;;;3.83;;
75191;SDS011;63771;52.580;9.734;2023-08-24T03:47:08;4.20;;;3.83;;
75191;SDS011;63771;52.580;9.734;2023-08-24T03:49:34;3.40;;;3.20;;
75191;SDS011;63771;52.580;9.734;2023-08-24T03:51:59;3.92;;;3.63;;
75191;SDS011;63771;52.580;9.734;2023-08-24T03:54:24;9.32;;;4.20;;
75191;SDS011;63771;52.580;9.734;2023-08-24T03:56:50;4.00;;;3.70;;
75191;SDS011;63771;52.580;9.734;2023-08-24T03:59:15;4.10;;;3.80;;
75191;SDS011;63771;52.580;9.734;2023-08-24T04:01:41;4.30;;;3.90;;
75191;SDS011;63771;52.580;9.734;2023-08-24T04:04:06;4.13;;;3.83;;
75191;SDS011;63771;52.580;9.734;2023-08-24T04:06:31;5.47;;;3.67;;
75191;SDS011;63771;52.580;9.734;2023-08-24T04:08:57;5.37;;;4.23;;
75191;SDS011;63771;52.580;9.734;2023-08-24T04:11:22;4.27;;;3.97;;
75191;SDS011;63771;52.580;9.734;2023-08-24T04:13:47;4.63;;;3.90;;
75191;SDS011;63771;52.580;9.734;2023-08-24T04:16:13;4.05;;;3.65;;
75191;SDS011;63771;52.580;9.734;2023-08-24T04:18:38;3.57;;;3.27;;
75191;SDS011;63771;52.580;9.734;2023-08-24T04:21:05;4.45;;;3.88;;
75191;SDS011;63771;52.580;9.734;2023-08-24T04:23:31;3.95;;;3.55;;
75191;SDS011;63771;52.580;9.734;2023-08-24T04:25:56;4.80;;;3.90;;
75191;SDS011;63771;52.580;9.734;2023-08-24T04:28:21;4.43;;;3.80;;
75191;SDS011;63771;52.580;9.734;2023-08-24T04:30:51;4.60;;;4.10;;
75191;SDS011;63771;52.580;9.734;2023-08-24T04:33:17;6.38;;;4.35;;
75191;SDS011;63771;52.580;9.734;2023-08-24T04:35:42;9.35;;;4.60;;
75191;SDS011;63771;52.580;9.734;2023-08-24T04:38:07;5.47;;;4.70;;
75191;SDS011;63771;52.580;9.734;2023-08-24T04:40:50;5.32;;;4.88;;
75191;SDS011;63771;52.580;9.734;2023-08-24T04:43:17;5.75;;;5.25;;
75191;SDS011;63771;52.580;9.734;2023-08-24T04:45:45;6.45;;;4.88;;
75191;SDS011;63771;52.580;9.734;2023-08-24T04:48:12;5.95;;;5.13;;
75191;SDS011;63771;52.580;9.734;2023-08-24T04:50:37;6.27;;;5.13;;
75191;SDS011;63771;52.580;9.734;2023-08-24T04:53:02;6.50;;;4.63;;
75191;SDS011;63771;52.580;9.734;2023-08-24T04:55:28;7.22;;;4.55;;
75191;SDS011;63771;52.580;9.734;2023-08-24T04:57:53;6.87;;;5.33;;
75191;SDS011;63771;52.580;9.734;2023-08-24T05:00:18;8.25;;;6.15;;
75191;SDS011;63771;52.580;9.734;2023-08-24T05:02:44;9.20;;;6.15;;
75191;SDS011;63771;52.580;9.734;2023-08-24T05:05:09;9.00;;;5.43;;
75191;SDS011;63771;52.580;9.734;2023-08-24T05:07:41;5.50;;;5.03;;
75191;SDS011;63771;52.580;9.734;2023-08-24T05:10:07;8.00;;;5.50;;
75191;SDS011;63771;52.580;9.734;2023-08-24T05:12:33;6.70;;;5.60;;
75191;SDS011;63771;52.580;9.734;2023-08-24T05:15:01;7.85;;;5.63;;
75191;SDS011;63771;52.580;9.734;2023-08-24T05:17:27;12.13;;;5.82;;
75191;SDS011;63771;52.580;9.734;2023-08-24T05:19:53;6.78;;;5.78;;
75191;SDS011;63771;52.580;9.734;2023-08-24T05:22:19;9.55;;;5.88;;
75191;SDS011;63771;52.580;9.734;2023-08-24T05:24:45;6.70;;;5.68;;
75191;SDS011;63771;52.580;9.734;2023-08-24T05:27:10;7.40;;;6.68;;
75191;SDS011;63771;52.580;9.734;2023-08-24T05:29:36;8.20;;;5.18;;
75191;SDS011;63771;52.580;9.734;2023-08-24T05:32:01;7.07;;;5.20;;
75191;SDS011;63771;52.580;9.734;2023-08-24T05:34:27;7.75;;;5.90;;
75191;SDS011;63771;52.580;9.734;2023-08-24T05:36:53;7.90;;;5.53;;
75191;SDS011;63771;52.580;9.734;2023-08-24T05:39:18;5.43;;;4.95;;
75191;SDS011;63771;52.580;9.734;2023-08-24T05:41:44;4.93;;;4.47;;
75191;SDS011;63771;52.580;9.734;2023-08-24T05:44:09;5.07;;;4.45;;
75191;SDS011;63771;52.580;9.734;2023-08-24T05:46:34;5.15;;;4.70;;
75191;SDS011;63771;52.580;9.734;2023-08-24T05:49:00;8.18;;;4.53;;
75191;SDS011;63771;52.580;9.734;2023-08-24T05:51:25;4.47;;;4.07;;
75191;SDS011;63771;52.580;9.734;2023-08-24T05:53:51;5.38;;;4.88;;
75191;SDS011;63771;52.580;9.734;2023-08-24T05:56:20;4.68;;;4.22;;
75191;SDS011;63771;52.580;9.734;2023-08-24T05:58:47;5.53;;;4.40;;
75191;SDS011;63771;52.580;9.734;2023-08-24T06:01:12;6.90;;;4.47;;
75191;SDS011;63771;52.580;9.734;2023-08-24T06:03:38;5.20;;;4.80;;
75191;SDS011;63771;52.580;9.734;2023-08-24T06:06:03;5.87;;;5.00;;
75191;SDS011;63771;52.580;9.734;2023-08-24T06:08:29;5.43;;;4.70;;
75191;SDS011;63771;52.580;9.734;2023-08-24T06:10:55;5.82;;;5.32;;
75191;SDS011;63771;52.580;9.734;2023-08-24T06:13:21;4.80;;;4.35;;
75191;SDS011;63771;52.580;9.734;2023-08-24T06:15:46;6.18;;;5.63;;
75191;SDS011;63771;52.580;9.734;2023-08-24T06:18:12;7.27;;;5.27;;
75191;SDS011;63771;52.580;9.734;2023-08-24T06:20:37;7.70;;;4.93;;
75191;SDS011;63771;52.580;9.734;2023-08-24T06:23:02;6.55;;;5.72;;
75191;SDS011;63771;52.580;9.734;2023-08-24T06:25:28;7.60;;;5.03;;
75191;SDS011;63771;52.580;9.734;2023-08-24T06:27:53;5.77;;;5.27;;
75191;SDS011;63771;52.580;9.734;2023-08-24T06:30:18;5.90;;;5.27;;
75191;SDS011;63771;52.580;9.734;2023-08-24T06:32:44;5.75;;;5.25;;
75191;SDS011;63771;52.580;9.734;2023-08-24T06:35:09;7.40;;;5.18;;
75191;SDS011;63771;52.580;9.734;2023-08-24T06:37:38;6.82;;;6.10;;
75191;SDS011;63771;52.580;9.734;2023-08-24T06:40:04;5.83;;;5.33;;
75191;SDS011;63771;52.580;9.734;2023-08-24T06:42:29;5.97;;;5.45;;
75191;SDS011;63771;52.580;9.734;2023-08-24T06:44:55;7.33;;;6.33;;
75191;SDS011;63771;52.580;9.734;2023-08-24T06:47:20;6.72;;;6.07;;
75191;SDS011;63771;52.580;9.734;2023-08-24T06:49:45;8.37;;;6.33;;
75191;SDS011;63771;52.580;9.734;2023-08-24T06:52:11;6.50;;;5.80;;
75191;SDS011;63771;52.580;9.734;2023-08-24T06:54:36;6.80;;;6.10;;
75191;SDS011;63771;52.580;9.734;2023-08-24T06:57:01;6.67;;;6.00;;
75191;SDS011;63771;52.580;9.734;2023-08-24T06:59:28;6.22;;;5.72;;
75191;SDS011;63771;52.580;9.734;2023-08-24T07:01:53;7.97;;;6.47;;
75191;SDS011;63771;52.580;9.734;2023-08-24T07:04:18;9.02;;;6.40;;
75191;SDS011;63771;52.580;9.734;2023-08-24T07:06:44;6.33;;;5.83;;
75191;SDS011;63771;52.580;9.734;2023-08-24T07:09:09;7.50;;;5.63;;
75191;SDS011;63771;52.580;9.734;2023-08-24T07:11:34;8.33;;;5.90;;
75191;SDS011;63771;52.580;9.734;2023-08-24T07:13:59;5.37;;;4.87;;
75191;SDS011;63771;52.580;9.734;2023-08-24T07:16:25;5.73;;;5.23;;
75191;SDS011;63771;52.580;9.734;2023-08-24T07:18:50;6.07;;;5.57;;
75191;SDS011;63771;52.580;9.734;2023-08-24T07:21:16;6.25;;;5.50;;
75191;SDS011;63771;52.580;9.734;2023-08-24T07:23:42;7.28;;;5.35;;
75191;SDS011;63771;52.580;9.734;2023-08-24T07:26:08;8.38;;;5.70;;
75191;SDS011;63771;52.580;9.734;2023-08-24T07:28:34;5.65;;;5.15;;
75191;SDS011;63771;52.580;9.734;2023-08-24T07:31:06;6.78;;;4.95;;
75191;SDS011;63771;52.580;9.734;2023-08-24T07:33:32;6.32;;;5.38;;
75191;SDS011;63771;52.580;9.734;2023-08-24T07:35:57;5.77;;;5.10;;
75191;SDS011;63771;52.580;9.734;2023-08-24T07:38:22;6.07;;;4.40;;
75191;SDS011;63771;52.580;9.734;2023-08-24T07:40:48;6.60;;;5.53;;
75191;SDS011;63771;52.580;9.734;2023-08-24T07:43:13;5.87;;;5.33;;
75191;SDS011;63771;52.580;9.734;2023-08-24T07:45:38;5.97;;;5.47;;
75191;SDS011;63771;52.580;9.734;2023-08-24T07:48:05;7.20;;;5.72;;
75191;SDS011;63771;52.580;9.734;2023-08-24T07:50:31;7.95;;;5.05;;
75191;SDS011;63771;52.580;9.734;2023-08-24T07:52:57;6.30;;;5.72;;
75191;SDS011;63771;52.580;9.734;2023-08-24T07:55:22;6.22;;;5.72;;
75191;SDS011;63771;52.580;9.734;2023-08-24T07:57:47;5.68;;;5.18;;
75191;SDS011;63771;52.580;9.734;2023-08-24T08:00:14;6.70;;;5.75;;
75191;SDS011;63771;52.580;9.734;2023-08-24T08:02:39;7.20;;;5.07;;
75191;SDS011;63771;52.580;9.734;2023-08-24T08:05:05;5.25;;;4.75;;
75191;SDS011;63771;52.580;9.734;2023-08-24T08:07:35;4.78;;;4.32;;
75191;SDS011;63771;52.580;9.734;2023-08-24T08:10:01;5.28;;;4.82;;
75191;SDS011;63771;52.580;9.734;2023-08-24T08:12:26;5.10;;;4.35;;
75191;SDS011;63771;52.580;9.734;2023-08-24T08:14:52;6.18;;;4.47;;
75191;SDS011;63771;52.580;9.734;2023-08-24T08:17:17;4.80;;;4.40;;
75191;SDS011;63771;52.580;9.734;2023-08-24T08:19:42;4.50;;;4.10;;
75191;SDS011;63771;52.580;9.734;2023-08-24T08:22:08;6.88;;;5.07;;
75191;SDS011;63771;52.580;9.734;2023-08-24T08:24:33;4.80;;;4.30;;
75191;SDS011;63771;52.580;9.734;2023-08-24T08:26:58;4.57;;;4.22;;
75191;SDS011;63771;52.580;9.734;2023-08-24T08:29:24;4.07;;;3.75;;
75191;SDS011;63771;52.580;9.734;2023-08-24T08:31:49;5.30;;;4.80;;
75191;SDS011;63771;52.580;9.734;2023-08-24T08:34:14;7.70;;;4.60;;
75191;SDS011;63771;52.580;9.734;2023-08-24T08:36:40;4.37;;;3.70;;
75191;SDS011;63771;52.580;9.734;2023-08-24T08:39:05;3.95;;;3.60;;
75191;SDS011;63771;52.580;9.734;2023-08-24T08:41:32;4.30;;;3.90;;
75191;SDS011;63771;52.580;9.734;2023-08-24T08:44:04;4.85;;;3.95;;
75191;SDS011;63771;52.580;9.734;2023-08-24T08:46:30;4.10;;;3.80;;
75191;SDS011;63771;52.580;9.734;2023-08-24T08:48:57;4.28;;;3.92;;
75191;SDS011;63771;52.580;9.734;2023-08-24T08:53:50;5.28;;;4.00;;
75191;SDS011;63771;52.580;9.734;2023-08-24T08:56:16;5.93;;;3.43;;
75191;SDS011;63771;52.580;9.734;2023-08-24T08:58:41;4.03;;;3.67;;
75191;SDS011;63771;52.580;9.734;2023-08-24T09:01:08;4.10;;;3.75;;
75191;SDS011;63771;52.580;9.734;2023-08-24T09:03:33;4.00;;;3.63;;
75191;SDS011;63771;52.580;9.734;2023-08-24T09:05:59;5.53;;;3.65;;
75191;SDS011;63771;52.580;9.734;2023-08-24T09:08:25;4.88;;;3.63;;
75191;SDS011;63771;52.580;9.734;2023-08-24T09:10:51;3.83;;;3.53;;
75191;SDS011;63771;52.580;9.734;2023-08-24T09:13:17;6.00;;;3.83;;
75191;SDS011;63771;52.580;9.734;2023-08-24T09:15:42;5.68;;;3.80;;
75191;SDS011;63771;52.580;9.734;2023-08-24T09:18:08;5.22;;;4.40;;
75191;SDS011;63771;52.580;9.734;2023-08-24T09:20:33;4.60;;;3.88;;
75191;SDS011;63771;52.580;9.734;2023-08-24T09:22:59;4.60;;;4.20;;
75191;SDS011;63771;52.580;9.734;2023-08-24T09:25:24;4.25;;;3.95;;
75191;SDS011;63771;52.580;9.734;2023-08-24T09:27:56;5.63;;;3.88;;
75191;SDS011;63771;52.580;9.734;2023-08-24T09:30:22;4.50;;;3.90;;
75191;SDS011;63771;52.580;9.734;2023-08-24T09:32:48;3.80;;;3.50;;
75191;SDS011;63771;52.580;9.734;2023-08-24T09:35:13;5.32;;;3.72;;
75191;SDS011;63771;52.580;9.734;2023-08-24T09:37:39;5.13;;;4.57;;
75191;SDS011;63771;52.580;9.734;2023-08-24T09:40:05;4.30;;;3.90;;
75191;SDS011;63771;52.580;9.734;2023-08-24T09:42:37;4.30;;;3.63;;
75191;SDS011;63771;52.580;9.734;2023-08-24T09:45:04;4.57;;;4.10;;
75191;SDS011;63771;52.580;9.734;2023-08-24T09:47:30;3.22;;;3.03;;
75191;SDS011;63771;52.580;9.734;2023-08-24T09:49:55;4.37;;;4.03;;
75191;SDS011;63771;52.580;9.734;2023-08-24T09:52:21;3.92;;;3.47;;
75191;SDS011;63771;52.580;9.734;2023-08-24T09:54:50;3.65;;;3.45;;
75191;SDS011;63771;52.580;9.734;2023-08-24T09:57:17;3.97;;;3.58;;
75191;SDS011;63771;52.580;9.734;2023-08-24T09:59:44;6.35;;;4.65;;
75191;SDS011;63771;52.580;9.734;2023-08-24T10:02:16;4.72;;;4.35;;
75191;SDS011;63771;52.580;9.734;2023-08-24T10:04:45;4.95;;;4.30;;
75191;SDS011;63771;52.580;9.734;2023-08-24T10:07:14;6.25;;;3.90;;
75191;SDS011;63771;52.580;9.734;2023-08-24T10:10:07;6.75;;;4.00;;
75191;SDS011;63771;52.580;9.734;2023-08-24T10:12:38;4.50;;;4.05;;
75191;SDS011;63771;52.580;9.734;2023-08-24T10:15:09;4.47;;;4.15;;
75191;SDS011;63771;52.580;9.734;2023-08-24T10:17:37;4.18;;;3.78;;
75191;SDS011;63771;52.580;9.734;2023-08-24T10:20:02;7.45;;;4.32;;
75191;SDS011;63771;52.580;9.734;2023-08-24T10:22:31;3.78;;;3.45;;
75191;SDS011;63771;52.580;9.734;2023-08-24T10:25:00;4.72;;;4.07;;
75191;SDS011;63771;52.580;9.734;2023-08-24T10:27:26;4.18;;;3.88;;
75191;SDS011;63771;52.580;9.734;2023-08-24T10:29:52;5.00;;;4.60;;
75191;SDS011;63771;52.580;9.734;2023-08-24T10:32:19;9.30;;;4.03;;
75191;SDS011;63771;52.580;9.734;2023-08-24T10:34:46;6.47;;;4.30;;
75191;SDS011;63771;52.580;9.734;2023-08-24T10:37:11;5.32;;;4.80;;
75191;SDS011;63771;52.580;9.734;2023-08-24T10:39:43;4.90;;;4.40;;
75191;SDS011;63771;52.580;9.734;2023-08-24T10:42:11;5.28;;;4.38;;
75191;SDS011;63771;52.580;9.734;2023-08-24T10:44:37;3.75;;;3.45;;
75191;SDS011;63771;52.580;9.734;2023-08-24T10:47:07;5.55;;;4.10;;
75191;SDS011;63771;52.580;9.734;2023-08-24T10:49:37;5.38;;;4.05;;
75191;SDS011;63771;52.580;9.734;2023-08-24T10:52:21;4.93;;;4.15;;
75191;SDS011;63771;52.580;9.734;2023-08-24T10:54:48;3.70;;;3.38;;
75191;SDS011;63771;52.580;9.734;2023-08-24T10:57:19;5.63;;;3.53;;
75191;SDS011;63771;52.580;9.734;2023-08-24T11:02:48;6.93;;;3.65;;
75191;SDS011;63771;52.580;9.734;2023-08-24T11:05:21;3.60;;;3.13;;
75191;SDS011;63771;52.580;9.734;2023-08-24T11:07:50;3.40;;;3.10;;
75191;SDS011;63771;52.580;9.734;2023-08-24T11:10:17;4.60;;;3.35;;
75191;SDS011;63771;52.580;9.734;2023-08-24T11:15:48;5.78;;;4.15;;
75191;SDS011;63771;52.580;9.734;2023-08-24T11:18:24;3.80;;;3.50;;
75191;SDS011;63771;52.580;9.734;2023-08-24T11:20:53;3.35;;;3.10;;
75191;SDS011;63771;52.580;9.734;2023-08-24T11:23:24;3.90;;;3.60;;
75191;SDS011;63771;52.580;9.734;2023-08-24T11:25:51;3.55;;;3.17;;
75191;SDS011;63771;52.580;9.734;2023-08-24T11:28:24;4.00;;;3.53;;
75191;SDS011;63771;52.580;9.734;2023-08-24T11:30:54;3.55;;;3.35;;
75191;SDS011;63771;52.580;9.734;2023-08-24T11:33:26;3.65;;;3.25;;
75191;SDS011;63771;52.580;9.734;2023-08-24T11:35:54;3.17;;;2.97;;
75191;SDS011;63771;52.580;9.734;2023-08-24T11:38:20;3.65;;;3.35;;
75191;SDS011;63771;52.580;9.734;2023-08-24T11:40:45;3.25;;;3.00;;
75191;SDS011;63771;52.580;9.734;2023-08-24T11:43:10;4.50;;;3.10;;
75191;SDS011;63771;52.580;9.734;2023-08-24T11:45:36;3.90;;;3.17;;
75191;SDS011;63771;52.580;9.734;2023-08-24T11:48:03;5.88;;;3.30;;
75191;SDS011;63771;52.580;9.734;2023-08-24T11:50:29;3.20;;;2.90;;
75191;SDS011;63771;52.580;9.734;2023-08-24T11:52:55;4.20;;;3.90;;
75191;SDS011;63771;52.580;9.734;2023-08-24T11:55:23;3.33;;;3.03;;
75191;SDS011;63771;52.580;9.734;2023-08-24T11:57:49;4.72;;;3.35;;
75191;SDS011;63771;52.580;9.734;2023-08-24T12:00:15;3.42;;;3.22;;
75191;SDS011;63771;52.580;9.734;2023-08-24T12:02:43;5.00;;;3.35;;
75191;SDS011;63771;52.580;9.734;2023-08-24T12:05:19;3.63;;;3.42;;
75191;SDS011;63771;52.580;9.734;2023-08-24T12:07:54;3.35;;;3.08;;
75191;SDS011;63771;52.580;9.734;2023-08-24T12:10:20;3.20;;;2.83;;
75191;SDS011;63771;52.580;9.734;2023-08-24T12:12:46;3.60;;;3.30;;
75191;SDS011;63771;52.580;9.734;2023-08-24T12:15:16;3.33;;;3.03;;
75191;SDS011;63771;52.580;9.734;2023-08-24T12:17:43;5.00;;;3.55;;
75191;SDS011;63771;52.580;9.734;2023-08-24T12:20:16;4.78;;;3.30;;
75191;SDS011;63771;52.580;9.734;2023-08-24T12:22:43;3.40;;;3.08;;
75191;SDS011;63771;52.580;9.734;2023-08-24T12:25:08;6.72;;;3.10;;
75191;SDS011;63771;52.580;9.734;2023-08-24T12:27:33;4.00;;;2.65;;
75191;SDS011;63771;52.580;9.734;2023-08-24T12:30:01;4.45;;;2.60;;
75191;SDS011;63771;52.580;9.734;2023-08-24T12:32:29;3.53;;;2.50;;
75191;SDS011;63771;52.580;9.734;2023-08-24T12:35:10;3.45;;;3.00;;
75191;SDS011;63771;52.580;9.734;2023-08-24T12:37:36;4.28;;;2.85;;
75191;SDS011;63771;52.580;9.734;2023-08-24T12:40:02;6.05;;;3.00;;
75191;SDS011;63771;52.580;9.734;2023-08-24T12:42:30;3.63;;;3.33;;
75191;SDS011;63771;52.580;9.734;2023-08-24T12:44:56;3.00;;;2.80;;
75191;SDS011;63771;52.580;9.734;2023-08-24T12:47:21;3.30;;;2.88;;
75191;SDS011;63771;52.580;9.734;2023-08-24T12:49:47;4.63;;;3.28;;
75191;SDS011;63771;52.580;9.734;2023-08-24T12:52:12;3.47;;;3.17;;
75191;SDS011;63771;52.580;9.734;2023-08-24T12:54:37;3.17;;;2.90;;
75191;SDS011;63771;52.580;9.734;2023-08-24T12:57:02;3.67;;;3.07;;
75191;SDS011;63771;52.580;9.734;2023-08-24T12:59:28;4.28;;;3.10;;
75191;SDS011;63771;52.580;9.734;2023-08-24T13:01:53;3.15;;;2.88;;
75191;SDS011;63771;52.580;9.734;2023-08-24T13:04:19;2.93;;;2.67;;
75191;SDS011;63771;52.580;9.734;2023-08-24T13:06:44;3.73;;;2.77;;
75191;SDS011;63771;52.580;9.734;2023-08-24T13:09:09;3.37;;;2.90;;
75191;SDS011;63771;52.580;9.734;2023-08-24T13:11:36;3.78;;;2.42;;
75191;SDS011;63771;52.580;9.734;2023-08-24T13:14:02;3.85;;;2.53;;
75191;SDS011;63771;52.580;9.734;2023-08-24T13:16:27;3.93;;;2.80;;
75191;SDS011;63771;52.580;9.734;2023-08-24T13:18:52;3.75;;;3.13;;
75191;SDS011;63771;52.580;9.734;2023-08-24T13:21:18;5.50;;;2.87;;
75191;SDS011;63771;52.580;9.734;2023-08-24T13:23:43;4.38;;;2.67;;
75191;SDS011;63771;52.580;9.734;2023-08-24T13:26:16;4.60;;;2.20;;
75191;SDS011;63771;52.580;9.734;2023-08-24T13:28:43;3.53;;;2.25;;
75191;SDS011;63771;52.580;9.734;2023-08-24T13:31:08;6.77;;;2.80;;
75191;SDS011;63771;52.580;9.734;2023-08-24T13:33:33;5.97;;;2.47;;
75191;SDS011;63771;52.580;9.734;2023-08-24T13:35:59;5.40;;;2.60;;
75191;SDS011;63771;52.580;9.734;2023-08-24T13:38:28;3.50;;;3.17;;
75191;SDS011;63771;52.580;9.734;2023-08-24T13:40:53;3.67;;;2.60;;
75191;SDS011;63771;52.580;9.734;2023-08-24T13:43:18;2.30;;;2.20;;
75191;SDS011;63771;52.580;9.734;2023-08-24T13:45:44;2.47;;;2.28;;
75191;SDS011;63771;52.580;9.734;2023-08-24T13:48:10;2.47;;;2.28;;
75191;SDS011;63771;52.580;9.734;2023-08-24T13:50:35;2.75;;;2.55;;
75191;SDS011;63771;52.580;9.734;2023-08-24T13:53:01;3.75;;;2.33;;
75191;SDS011;63771;52.580;9.734;2023-08-24T13:55:26;5.97;;;2.43;;
75191;SDS011;63771;52.580;9.734;2023-08-24T13:57:51;2.57;;;2.43;;
75191;SDS011;63771;52.580;9.734;2023-08-24T14:00:17;2.40;;;2.20;;
75191;SDS011;63771;52.580;9.734;2023-08-24T14:02:42;2.10;;;2.00;;
75191;SDS011;63771;52.580;9.734;2023-08-24T14:05:09;5.50;;;2.63;;
75191;SDS011;63771;52.580;9.734;2023-08-24T14:07:36;2.80;;;2.50;;
75191;SDS011;63771;52.580;9.734;2023-08-24T14:10:02;2.60;;;2.33;;
75191;SDS011;63771;52.580;9.734;2023-08-24T14:12:27;4.65;;;2.42;;
75191;SDS011;63771;52.580;9.734;2023-08-24T14:14:53;2.28;;;2.13;;
75191;SDS011;63771;52.580;9.734;2023-08-24T14:17:18;9.23;;;2.57;;
75191;SDS011;63771;52.580;9.734;2023-08-24T14:19:43;2.30;;;2.05;;
75191;SDS011;63771;52.580;9.734;2023-08-24T14:22:09;5.05;;;2.33;;
75191;SDS011;63771;52.580;9.734;2023-08-24T14:24:34;4.23;;;2.40;;
75191;SDS011;63771;52.580;9.734;2023-08-24T14:27:00;3.13;;;2.20;;
75191;SDS011;63771;52.580;9.734;2023-08-24T14:29:26;2.50;;;2.30;;
75191;SDS011;63771;52.580;9.734;2023-08-24T14:31:51;2.33;;;2.13;;
75191;SDS011;63771;52.580;9.734;2023-08-24T14:34:16;2.33;;;2.20;;
75191;SDS011;63771;52.580;9.734;2023-08-24T14:36:41;2.53;;;2.33;;
75191;SDS011;63771;52.580;9.734;2023-08-24T14:39:07;3.40;;;2.70;;
75191;SDS011;63771;52.580;9.734;2023-08-24T14:41:32;2.20;;;2.10;;
75191;SDS011;63771;52.580;9.734;2023-08-24T14:43:57;5.37;;;2.03;;
75191;SDS011;63771;52.580;9.734;2023-08-24T14:46:23;2.53;;;2.20;;
75191;SDS011;63771;52.580;9.734;2023-08-24T14:48:48;2.97;;;2.10;;
75191;SDS011;63771;52.580;9.734;2023-08-24T14:51:14;2.42;;;2.08;;
75191;SDS011;63771;52.580;9.734;2023-08-24T14:53:39;4.20;;;2.47;;
75191;SDS011;63771;52.580;9.734;2023-08-24T14:56:05;2.75;;;2.25;;
75191;SDS011;63771;52.580;9.734;2023-08-24T14:58:30;3.72;;;2.20;;
75191;SDS011;63771;52.580;9.734;2023-08-24T15:00:56;2.20;;;2.10;;
75191;SDS011;63771;52.580;9.734;2023-08-24T15:03:22;3.80;;;3.45;;
75191;SDS011;63771;52.580;9.734;2023-08-24T15:06:03;2.47;;;2.10;;
75191;SDS011;63771;52.580;9.734;2023-08-24T15:08:33;2.65;;;2.40;;
75191;SDS011;63771;52.580;9.734;2023-08-24T15:11:00;2.65;;;2.20;;
75191;SDS011;63771;52.580;9.734;2023-08-24T15:13:26;2.40;;;2.20;;
75191;SDS011;63771;52.580;9.734;2023-08-24T15:15:53;3.13;;;2.13;;
75191;SDS011;63771;52.580;9.734;2023-08-24T15:18:20;2.22;;;2.13;;
75191;SDS011;63771;52.580;9.734;2023-08-24T15:20:46;4.43;;;2.13;;
75191;SDS011;63771;52.580;9.734;2023-08-24T15:23:24;5.40;;;2.33;;
75191;SDS011;63771;52.580;9.734;2023-08-24T15:25:54;4.95;;;2.58;;